aviador You're here:

PHNY Decoded Metar

LANAI in HI, USA LANAI ISL.
Report Time2018-07-19 18:56:00
UTC Time2018-07-19 19:16:25
Flight Rules mvfr MVFR
WindVRB at 04 kt
Visibility9999 m
Phenomena:N/A
Clouds:Overcast 024 Hf
Expected CloudBase > 2,000 ft AGL from Temp-Dew spread
Ceiling2,400 ft
Temp25°C (ISA +13)
Dew Point20°C (74% RH)
QNH1019 hPa
Density Alt2,877 ft
Elevation1,309 ft
Report Wrong Elevation
Raw Report
PHNY 191856Z AUTO VRB04KT 10SM OVC024 25/20 A3009 RMK AO2 SLP166
T02500200=

Extra information for PHNY:More info

Metar Taf Metar & Taf Last 4 Metars F.Rules Stats Wind Profile Meteogram Temp Stats Airport Information Weather charts Add Link Nearby VenuesMetar ALERT Operation Metar Decoded Social comments